Time,TemperatureF,DewpointF,PressureIn,WindDirection,WindDirectionDegrees,WindSpeedMPH,WindSpeedGustMPH,Humidity,HourlyPrecipIn,Conditions,Clouds,dailyrainin,SolarRadiationWatts/m^2,SoftwareType,DateUTC
2013-03-19 01:00:00,51.0,47.0,29.97,NW,314,3.0,-999.0,86,-99.99,,,-99.99,0.000000,,2013-03-19 06:00:00,
2013-03-19 01:52:00,51.0,47.0,29.97,NW,314,3.0,-999.0,86,-99.99,,,-99.99,0.000000,,2013-03-19 06:52:00,
2013-03-19 03:00:00,46.0,41.0,30.04,North,359,7.0,-999.0,81,-99.99,,,-99.99,0.000000,,2013-03-19 08:00:00,
2013-03-19 03:52:00,46.0,41.0,30.04,North,359,7.0,-999.0,81,-99.99,,,-99.99,0.000000,,2013-03-19 08:52:00,
2013-03-19 04:00:00,45.0,37.0,30.05,North,359,6.0,-999.0,73,-99.99,,,-99.99,0.000000,,2013-03-19 09:00:00,
2013-03-19 04:53:00,45.0,37.0,30.05,North,359,6.0,-999.0,73,-99.99,,,-99.99,0.000000,,2013-03-19 09:53:00,
2013-03-19 05:00:00,43.0,35.0,30.07,NNE,15,5.0,-999.0,73,-99.99,,,-99.99,0.000000,,2013-03-19 10:00:00,
2013-03-19 05:53:00,43.0,35.0,30.07,NNE,15,5.0,-999.0,73,-99.99,,,-99.99,0.000000,,2013-03-19 10:53:00,
2013-03-19 06:00:00,36.0,34.0,30.06,East,82,1.0,-999.0,92,-99.99,,,-99.99,0.000000,,2013-03-19 11:00:00,
2013-03-19 06:52:00,36.0,34.0,30.06,East,82,1.0,-999.0,92,-99.99,,,-99.99,0.000000,,2013-03-19 11:52:00,
2013-03-19 07:00:00,32.0,31.0,30.05,NE,49,2.0,-999.0,96,-99.99,,,-99.99,1.660000,,2013-03-19 12:00:00,
2013-03-19 07:52:00,32.0,31.0,30.05,NE,49,2.0,-999.0,96,-99.99,,,-99.99,1.660000,,2013-03-19 12:52:00,
2013-03-19 08:00:00,40.0,37.0,30.08,ENE,68,1.0,-999.0,89,-99.99,,,-99.99,91.500000,,2013-03-19 13:00:00,
2013-03-19 08:53:00,40.0,37.0,30.08,ENE,68,1.0,-999.0,89,-99.99,,,-99.99,91.500000,,2013-03-19 13:53:00,
2013-03-19 09:00:00,47.0,39.0,30.12,East,89,1.0,-999.0,71,-99.99,,,-99.99,298.100006,,2013-03-19 14:00:00,
2013-03-19 09:52:00,47.0,39.0,30.12,East,89,1.0,-999.0,71,-99.99,,,-99.99,298.100006,,2013-03-19 14:52:00,
2013-03-19 10:00:00,51.0,39.0,30.13,NE,41,4.0,-999.0,62,-99.99,,,-99.99,495.100006,,2013-03-19 15:00:00,
2013-03-19 10:53:00,51.0,39.0,30.13,NE,41,4.0,-999.0,62,-99.99,,,-99.99,495.100006,,2013-03-19 15:53:00,
2013-03-19 11:00:00,53.0,33.0,30.13,NE,51,4.0,-999.0,47,-99.99,,,-99.99,658.099976,,2013-03-19 16:00:00,
2013-03-19 11:54:00,53.0,33.0,30.13,NE,51,4.0,-999.0,47,-99.99,,,-99.99,658.099976,,2013-03-19 16:54:00,
2013-03-19 12:00:00,56.0,32.0,30.14,North,11,4.0,-999.0,40,-99.99,,,-99.99,674.700012,,2013-03-19 17:00:00,
2013-03-19 12:53:00,56.0,32.0,30.14,North,11,4.0,-999.0,40,-99.99,,,-99.99,674.700012,,2013-03-19 17:53:00,
2013-03-19 13:00:00,58.0,32.0,30.14,NW,323,5.0,-999.0,37,-99.99,,,-99.99,817.000000,,2013-03-19 18:00:00,
2013-03-19 13:53:00,58.0,32.0,30.14,NW,323,5.0,-999.0,37,-99.99,,,-99.99,817.000000,,2013-03-19 18:53:00,
2013-03-19 14:00:00,59.0,28.0,30.14,WNW,302,5.0,-999.0,30,-99.99,,,-99.99,823.000000,,2013-03-19 19:00:00,
2013-03-19 14:53:00,59.0,28.0,30.14,WNW,302,5.0,-999.0,30,-99.99,,,-99.99,823.000000,,2013-03-19 19:53:00,
2013-03-19 15:00:00,59.0,28.0,30.11,NNW,334,6.0,-999.0,30,-99.99,,,-99.99,696.700012,,2013-03-19 20:00:00,
2013-03-19 15:53:00,59.0,28.0,30.11,NNW,334,6.0,-999.0,30,-99.99,,,-99.99,696.700012,,2013-03-19 20:53:00,
2013-03-19 16:00:00,61.0,25.0,30.11,NW,325,6.0,-999.0,25,-99.99,,,-99.99,603.099976,,2013-03-19 21:00:00,
2013-03-19 16:53:00,61.0,25.0,30.11,NW,325,6.0,-999.0,25,-99.99,,,-99.99,603.099976,,2013-03-19 21:53:00,
2013-03-19 17:00:00,60.0,29.0,30.11,NNW,335,6.0,-999.0,30,-99.99,,,-99.99,452.500000,,2013-03-19 22:00:00,
2013-03-19 17:53:00,60.0,29.0,30.11,NNW,335,6.0,-999.0,30,-99.99,,,-99.99,452.500000,,2013-03-19 22:53:00,
2013-03-19 18:00:00,58.0,25.0,30.11,NNW,327,5.0,-999.0,28,-99.99,,,-99.99,250.899994,,2013-03-19 23:00:00,
2013-03-19 18:53:00,58.0,25.0,30.11,NNW,327,5.0,-999.0,28,-99.99,,,-99.99,250.899994,,2013-03-19 23:53:00,
2013-03-19 19:00:00,54.0,24.0,30.10,North,5,4.0,-999.0,32,-99.99,,,-99.99,39.990002,,2013-03-20 00:00:00,
2013-03-19 19:52:00,54.0,24.0,30.10,North,5,4.0,-999.0,32,-99.99,,,-99.99,39.990002,,2013-03-20 00:52:00,
2013-03-19 20:00:00,46.0,30.0,30.11,NE,49,3.0,-999.0,52,-99.99,,,-99.99,0.090000,,2013-03-20 01:00:00,
2013-03-19 20:53:00,46.0,30.0,30.11,NE,49,3.0,-999.0,52,-99.99,,,-99.99,0.090000,,2013-03-20 01:53:00,
2013-03-19 21:00:00,50.0,21.0,30.13,NE,45,4.0,-999.0,32,-99.99,,,-99.99,0.000000,,2013-03-20 02:00:00,
2013-03-19 21:53:00,50.0,21.0,30.13,NE,45,4.0,-999.0,32,-99.99,,,-99.99,0.000000,,2013-03-20 02:53:00,
2013-03-19 22:00:00,48.0,20.0,30.14,NE,39,5.0,-999.0,33,-99.99,,,-99.99,0.000000,,2013-03-20 03:00:00,
2013-03-19 22:53:00,48.0,20.0,30.14,NE,39,5.0,-999.0,33,-99.99,,,-99.99,0.000000,,2013-03-20 03:53:00,
2013-03-19 23:00:00,46.0,19.0,30.14,NNE,27,4.0,-999.0,33,-99.99,,,-99.99,0.000000,,2013-03-20 04:00:00,
2013-03-19 23:53:00,46.0,19.0,30.14,NNE,27,4.0,-999.0,33,-99.99,,,-99.99,0.000000,,2013-03-20 04:53:00,